NCAR-RAP Real-Time Weather Data

Output produced by METARs form (19 June 2019  11:17 UTC)
found at http://weather.rap.ucar.edu/surface/
 
Conditions at: KTYQ observed 19 June 2019  10:55 UTC
Temperature: 18.3°C (65°F)
Dewpoint: 18.3°C (65°F) [RH = 100%]
Pressure (altimeter): 29.82 inches Hg (1009.9 mb)
Winds: calm
Visibility: 3 miles (5 km)
Ceiling: 7000 feet AGL
Clouds: broken clouds at 7000 feet AGL
overcast cloud deck at 9500 feet AGL
Present Weather: BR  (mist)
KTYQ 191055Z AUTO 00000KT 3SM BR BKN070 OVC095 18/18 A2982 RMK AO2 T01830183